createdAt,value
2017-01-30T00:00:39.831Z,0
2017-01-30T00:01:50.107Z,0
2017-01-30T00:03:00.783Z,0
2017-01-30T00:04:10.667Z,0
2017-01-30T00:05:20.943Z,0
2017-01-30T00:06:31.619Z,0
2017-01-30T00:07:42.321Z,0
2017-01-30T00:08:53.006Z,0
2017-01-30T00:10:03.682Z,0
2017-01-30T00:11:13.959Z,0
2017-01-30T00:12:24.671Z,0
2017-01-30T00:13:35.345Z,0
2017-01-30T00:14:46.030Z,0
2017-01-30T00:15:56.707Z,0
2017-01-30T00:17:07.380Z,0
2017-01-30T00:18:18.053Z,0
2017-01-30T00:19:28.735Z,0
2017-01-30T00:20:39.416Z,0
2017-01-30T00:21:50.097Z,0
2017-01-30T00:23:00.768Z,0
2017-01-30T00:24:11.444Z,0
2017-01-30T00:25:21.721Z,0
2017-01-30T00:26:32.391Z,0
2017-01-30T00:27:43.062Z,0
2017-01-30T00:28:53.737Z,0
2017-01-30T00:30:04.012Z,0
2017-01-30T00:31:14.681Z,0
2017-01-30T00:32:25.378Z,0
2017-01-30T00:33:35.656Z,0
2017-01-30T00:34:45.934Z,0
2017-01-30T00:35:56.612Z,0
2017-01-30T00:37:07.294Z,0
2017-01-30T00:38:17.969Z,0
2017-01-30T00:39:28.667Z,0
2017-01-30T00:40:39.343Z,0
2017-01-30T00:41:49.220Z,0
2017-01-30T00:42:59.894Z,0
2017-01-30T00:44:10.169Z,0
2017-01-30T00:45:20.472Z,0
2017-01-30T00:46:31.150Z,0
2017-01-30T00:47:41.850Z,0
2017-01-30T00:48:52.525Z,0
2017-01-30T00:50:02.808Z,0
2017-01-30T00:51:13.483Z,0
2017-01-30T00:52:23.357Z,0
2017-01-30T00:53:34.030Z,0
2017-01-30T00:54:44.705Z,0
2017-01-30T00:55:55.378Z,0
2017-01-30T00:57:06.052Z,0
2017-01-30T00:58:16.729Z,0
2017-01-30T00:59:27.406Z,0
2017-01-30T01:00:38.086Z,0
2017-01-30T01:01:48.759Z,0
2017-01-30T01:02:59.082Z,0
2017-01-30T01:04:09.781Z,0
2017-01-30T01:05:20.056Z,0
2017-01-30T01:06:30.730Z,0
2017-01-30T01:07:41.398Z,0
2017-01-30T01:08:52.076Z,0
2017-01-30T01:10:02.763Z,0
2017-01-30T01:11:13.041Z,0
2017-01-30T01:12:23.314Z,0
2017-01-30T01:13:34.001Z,0
2017-01-30T01:14:44.680Z,0
2017-01-30T01:15:55.355Z,0
2017-01-30T01:17:06.037Z,0
2017-01-30T01:18:15.917Z,0
2017-01-30T01:19:26.588Z,0
2017-01-30T01:20:37.263Z,0
2017-01-30T01:21:47.548Z,0
2017-01-30T01:22:58.227Z,0
2017-01-30T01:24:08.901Z,0
2017-01-30T01:25:19.572Z,0
2017-01-30T01:26:30.247Z,0
2017-01-30T01:27:40.924Z,0
2017-01-30T01:28:51.605Z,0
2017-01-30T01:30:02.290Z,0
2017-01-30T01:31:12.967Z,0
2017-01-30T01:32:23.639Z,0
2017-01-30T01:33:34.310Z,0
2017-01-30T01:34:44.988Z,0
2017-01-30T01:35:55.663Z,0
2017-01-30T01:37:06.339Z,0
2017-01-30T01:38:17.021Z,0
2017-01-30T01:39:27.696Z,0
2017-01-30T01:40:38.369Z,0
2017-01-30T01:41:49.041Z,0
2017-01-30T01:42:59.712Z,0
2017-01-30T01:44:09.999Z,0
2017-01-30T01:45:20.676Z,0
2017-01-30T01:46:31.350Z,0
2017-01-30T01:47:42.053Z,0
2017-01-30T01:48:52.723Z,0
2017-01-30T01:50:03.424Z,0
2017-01-30T01:51:14.099Z,0
2017-01-30T01:52:24.774Z,0
2017-01-30T01:53:35.443Z,0
2017-01-30T01:54:46.114Z,0
2017-01-30T01:55:56.791Z,0
2017-01-30T01:57:07.067Z,0
2017-01-30T01:58:17.455Z,0
2017-01-30T01:59:28.127Z,0
2017-01-30T02:00:38.800Z,0
2017-01-30T02:01:49.073Z,0
2017-01-30T02:02:59.747Z,0
2017-01-30T02:04:10.420Z,0
2017-01-30T02:05:21.089Z,0
2017-01-30T02:06:31.367Z,0
2017-01-30T02:07:42.061Z,0
2017-01-30T02:08:52.735Z,0
2017-01-30T02:10:03.407Z,0
2017-01-30T02:11:13.684Z,0
2017-01-30T02:12:23.969Z,0
2017-01-30T02:13:34.642Z,0
2017-01-30T02:14:44.916Z,0
2017-01-30T02:15:55.589Z,0
2017-01-30T02:17:06.264Z,0
2017-01-30T02:18:16.146Z,0
2017-01-30T02:19:26.823Z,0
2017-01-30T02:20:37.496Z,0
2017-01-30T02:21:48.175Z,0
2017-01-30T02:22:58.848Z,0
2017-01-30T02:24:09.520Z,0
2017-01-30T02:25:19.790Z,0
2017-01-30T02:26:30.459Z,0
2017-01-30T02:27:41.440Z,0
2017-01-30T02:28:52.110Z,0
2017-01-30T02:30:02.792Z,0
2017-01-30T02:31:13.468Z,0
2017-01-30T02:32:24.152Z,0
2017-01-30T02:33:34.827Z,0
2017-01-30T02:34:45.506Z,0
2017-01-30T02:35:56.184Z,0
2017-01-30T02:37:06.851Z,0
2017-01-30T02:38:16.730Z,0
2017-01-30T02:39:27.408Z,0
2017-01-30T02:40:38.081Z,0
2017-01-30T02:41:48.362Z,0
2017-01-30T02:42:59.036Z,0
2017-01-30T02:44:09.707Z,0
2017-01-30T02:45:20.376Z,0
2017-01-30T02:46:31.070Z,0
2017-01-30T02:47:41.741Z,0
2017-01-30T02:48:52.422Z,0
2017-01-30T02:50:03.097Z,0
2017-01-30T02:51:13.769Z,0
2017-01-30T02:52:24.444Z,0
2017-01-30T02:53:35.123Z,0
2017-01-30T02:54:45.795Z,0
2017-01-30T02:55:56.065Z,0
2017-01-30T02:57:06.737Z,0
2017-01-30T02:58:17.010Z,0
2017-01-30T02:59:27.715Z,0
2017-01-30T03:00:38.393Z,0
2017-01-30T03:01:49.066Z,0
2017-01-30T03:02:59.739Z,0
2017-01-30T03:04:10.021Z,0
2017-01-30T03:05:20.694Z,0
2017-01-30T03:06:31.395Z,0
2017-01-30T03:07:42.065Z,0
2017-01-30T03:08:52.741Z,0
2017-01-30T03:10:03.418Z,0
2017-01-30T03:11:13.690Z,0
2017-01-30T03:12:24.364Z,0
2017-01-30T03:13:35.043Z,0
2017-01-30T03:14:45.712Z,0
2017-01-30T03:15:56.380Z,0
2017-01-30T03:17:07.056Z,0
2017-01-30T03:18:17.331Z,0
2017-01-30T03:19:28.010Z,0
2017-01-30T03:20:38.688Z,0
2017-01-30T03:21:49.361Z,0
2017-01-30T03:23:00.038Z,0
2017-01-30T03:24:10.317Z,0
2017-01-30T03:25:20.985Z,0
2017-01-30T03:26:31.658Z,0
2017-01-30T03:27:42.405Z,0
2017-01-30T03:28:52.716Z,0
2017-01-30T03:30:03.416Z,0
2017-01-30T03:31:14.095Z,0
2017-01-30T03:32:24.374Z,0
2017-01-30T03:33:35.052Z,0
2017-01-30T03:34:45.733Z,0
2017-01-30T03:35:56.013Z,0
2017-01-30T03:37:06.694Z,0
2017-01-30T03:38:17.381Z,0
2017-01-30T03:39:28.058Z,0
2017-01-30T03:40:38.739Z,0
2017-01-30T03:41:49.415Z,0
2017-01-30T03:43:00.090Z,0
2017-01-30T03:44:10.376Z,0
2017-01-30T03:45:21.048Z,0
2017-01-30T03:46:31.716Z,0
2017-01-30T03:47:42.387Z,0
2017-01-30T03:48:53.072Z,0
2017-01-30T03:50:03.744Z,0
2017-01-30T03:51:14.414Z,0
2017-01-30T03:52:24.686Z,0
2017-01-30T03:53:35.392Z,0
2017-01-30T03:54:46.064Z,0
2017-01-30T03:55:56.737Z,0
2017-01-30T03:57:07.415Z,0
2017-01-30T03:58:18.090Z,0
2017-01-30T03:59:28.764Z,0
2017-01-30T04:00:39.437Z,0
2017-01-30T04:01:50.110Z,0
2017-01-30T04:03:00.781Z,0
2017-01-30T04:04:11.459Z,0
2017-01-30T04:05:22.140Z,0
2017-01-30T04:06:32.814Z,0
2017-01-30T04:07:43.490Z,0
2017-01-30T04:08:54.168Z,0
2017-01-30T04:10:04.838Z,0
2017-01-30T04:11:14.718Z,0
2017-01-30T04:12:25.393Z,0
2017-01-30T04:13:36.074Z,0
2017-01-30T04:14:46.753Z,0
2017-01-30T04:15:57.426Z,0
2017-01-30T04:17:08.100Z,0
2017-01-30T04:18:18.799Z,0
2017-01-30T04:19:29.471Z,0
2017-01-30T04:20:40.141Z,0
2017-01-30T04:21:50.822Z,0
2017-01-30T04:23:01.502Z,0
2017-01-30T04:24:12.181Z,0
2017-01-30T04:25:22.856Z,0
2017-01-30T04:26:33.524Z,0
2017-01-30T04:27:44.200Z,0
2017-01-30T04:28:54.881Z,0
2017-01-30T04:30:05.549Z,0
2017-01-30T04:31:16.226Z,0
2017-01-30T04:32:26.908Z,0
2017-01-30T04:33:37.591Z,0
2017-01-30T04:34:48.266Z,0
2017-01-30T04:35:58.961Z,0
2017-01-30T04:37:09.631Z,0
2017-01-30T04:38:20.301Z,0
2017-01-30T04:39:30.970Z,0
2017-01-30T04:40:41.674Z,0
2017-01-30T04:41:52.342Z,0
2017-01-30T04:43:03.050Z,0
2017-01-30T04:44:13.724Z,0
2017-01-30T04:45:24.400Z,0
2017-01-30T04:46:35.110Z,0
2017-01-30T04:47:45.818Z,0
2017-01-30T04:48:56.493Z,0
2017-01-30T04:50:07.169Z,0
2017-01-30T04:51:17.044Z,0
2017-01-30T04:52:27.719Z,0
2017-01-30T04:53:37.995Z,0
2017-01-30T04:54:48.663Z,0
2017-01-30T04:55:59.339Z,0
2017-01-30T04:57:10.008Z,0
2017-01-30T04:58:20.689Z,0
2017-01-30T04:59:31.358Z,0
2017-01-30T05:00:42.030Z,0
2017-01-30T05:01:52.705Z,0
2017-01-30T05:03:03.376Z,0
2017-01-30T05:04:14.050Z,0
2017-01-30T05:05:24.719Z,0
2017-01-30T05:06:35.390Z,0
2017-01-30T05:07:46.067Z,0
2017-01-30T05:08:56.742Z,0
2017-01-30T05:10:07.439Z,0
2017-01-30T05:11:18.109Z,0
2017-01-30T05:12:28.779Z,0
2017-01-30T05:13:39.462Z,0
2017-01-30T05:14:50.136Z,0
2017-01-30T05:16:00.414Z,0
2017-01-30T05:17:11.084Z,0
2017-01-30T05:18:21.754Z,0
2017-01-30T05:19:32.423Z,0
2017-01-30T05:20:43.094Z,0
2017-01-30T05:21:53.776Z,0
2017-01-30T05:23:04.454Z,0
2017-01-30T05:24:15.145Z,0
2017-01-30T05:25:25.419Z,0
2017-01-30T05:26:36.095Z,0
2017-01-30T05:27:46.771Z,0
2017-01-30T05:28:57.452Z,0
2017-01-30T05:30:07.329Z,0
2017-01-30T05:31:17.209Z,0
2017-01-30T05:32:27.883Z,0
2017-01-30T05:33:38.205Z,0
2017-01-30T05:34:48.877Z,0
2017-01-30T05:35:59.558Z,0
2017-01-30T05:37:10.239Z,0
2017-01-30T05:38:20.910Z,0
2017-01-30T05:39:31.581Z,0
2017-01-30T05:40:42.256Z,0
2017-01-30T05:41:52.926Z,0
2017-01-30T05:43:03.636Z,0
2017-01-30T05:44:13.912Z,0
2017-01-30T05:45:24.582Z,0
2017-01-30T05:46:35.266Z,0
2017-01-30T05:47:45.940Z,0
2017-01-30T05:48:56.215Z,0
2017-01-30T05:50:06.891Z,0
2017-01-30T05:51:16.767Z,0
2017-01-30T05:52:27.437Z,0
2017-01-30T05:53:38.110Z,0
2017-01-30T05:54:48.784Z,0
2017-01-30T05:55:59.461Z,0
2017-01-30T05:57:10.146Z,0
2017-01-30T05:58:20.817Z,0
2017-01-30T05:59:31.488Z,0
2017-01-30T06:00:42.162Z,0
2017-01-30T06:01:52.830Z,0
2017-01-30T06:03:03.107Z,0
2017-01-30T06:04:13.776Z,0
2017-01-30T06:05:24.478Z,0
2017-01-30T06:06:35.154Z,0
2017-01-30T06:07:45.856Z,0
2017-01-30T06:08:56.522Z,0
2017-01-30T06:10:07.200Z,0
2017-01-30T06:11:17.877Z,0
2017-01-30T06:12:28.549Z,0
2017-01-30T06:13:38.830Z,0
2017-01-30T06:14:49.507Z,0
2017-01-30T06:16:00.177Z,0
2017-01-30T06:17:10.060Z,0
2017-01-30T06:18:19.940Z,0
2017-01-30T06:19:30.611Z,0
2017-01-30T06:20:41.283Z,0
2017-01-30T06:21:51.949Z,0
2017-01-30T06:23:02.619Z,0
2017-01-30T06:24:13.297Z,0
2017-01-30T06:25:23.963Z,0
2017-01-30T06:26:34.629Z,0
2017-01-30T06:27:45.304Z,0
2017-01-30T06:28:55.576Z,0
2017-01-30T06:30:06.249Z,0
2017-01-30T06:31:16.923Z,0
2017-01-30T06:32:27.592Z,0
2017-01-30T06:33:38.260Z,0
2017-01-30T06:34:49.283Z,0
2017-01-30T06:35:59.573Z,0
2017-01-30T06:37:10.269Z,0
2017-01-30T06:38:20.952Z,0
2017-01-30T06:39:31.621Z,0
2017-01-30T06:40:41.898Z,0
2017-01-30T06:41:52.576Z,0
2017-01-30T06:43:02.481Z,0
2017-01-30T06:44:12.763Z,0
2017-01-30T06:45:23.039Z,0
2017-01-30T06:46:33.738Z,0
2017-01-30T06:47:44.019Z,0
2017-01-30T06:48:54.716Z,0
2017-01-30T06:50:04.996Z,0
2017-01-30T06:51:15.666Z,0
2017-01-30T06:52:26.341Z,0
2017-01-30T06:53:37.016Z,0
2017-01-30T06:54:47.688Z,0
2017-01-30T06:55:58.364Z,0
2017-01-30T06:57:09.041Z,0
2017-01-30T06:58:19.313Z,0
2017-01-30T06:59:30.009Z,0
2017-01-30T07:00:40.682Z,0
2017-01-30T07:01:50.948Z,0
2017-01-30T07:03:01.623Z,0
2017-01-30T07:04:12.337Z,0
2017-01-30T07:05:22.609Z,0
2017-01-30T07:06:33.283Z,0
2017-01-30T07:07:43.958Z,0
2017-01-30T07:08:54.629Z,0
2017-01-30T07:10:04.895Z,0
2017-01-30T07:11:15.173Z,0
2017-01-30T07:12:25.846Z,0
2017-01-30T07:13:36.518Z,0
2017-01-30T07:14:46.808Z,0
2017-01-30T07:15:57.510Z,0
2017-01-30T07:17:08.182Z,0
2017-01-30T07:18:18.065Z,0
2017-01-30T07:19:28.351Z,0
2017-01-30T07:20:39.036Z,5
2017-01-30T07:21:49.711Z,5
2017-01-30T07:23:00.387Z,5
2017-01-30T07:24:11.060Z,5
2017-01-30T07:25:21.334Z,5
2017-01-30T07:26:32.004Z,5
2017-01-30T07:27:42.279Z,5
2017-01-30T07:28:52.954Z,5
2017-01-30T07:30:03.625Z,10
2017-01-30T07:31:14.334Z,10
2017-01-30T07:32:25.021Z,10
2017-01-30T07:33:35.697Z,10
2017-01-30T07:34:46.376Z,10
2017-01-30T07:35:57.052Z,10
2017-01-30T07:37:07.732Z,10
2017-01-30T07:38:18.415Z,15
2017-01-30T07:39:29.087Z,15
2017-01-30T07:40:39.756Z,15
2017-01-30T07:41:50.430Z,20
2017-01-30T07:43:00.711Z,20
2017-01-30T07:44:11.381Z,20
2017-01-30T07:45:22.050Z,20
2017-01-30T07:46:32.753Z,20
2017-01-30T07:47:43.431Z,25
2017-01-30T07:48:53.710Z,25
2017-01-30T07:50:03.980Z,30
2017-01-30T07:51:14.257Z,30
2017-01-30T07:52:24.936Z,30
2017-01-30T07:53:35.605Z,30
2017-01-30T07:54:46.271Z,35
2017-01-30T07:55:56.944Z,35
2017-01-30T07:57:07.223Z,40
2017-01-30T07:58:17.893Z,40
2017-01-30T07:59:28.561Z,40
2017-01-30T08:00:39.239Z,40
2017-01-30T08:01:49.910Z,40
2017-01-30T08:03:00.603Z,45
2017-01-30T08:04:11.279Z,45
2017-01-30T08:05:21.951Z,45
2017-01-30T08:06:32.623Z,50
2017-01-30T08:07:43.293Z,55
2017-01-30T08:08:53.598Z,55
2017-01-30T08:10:04.272Z,55
2017-01-30T08:11:14.552Z,60
2017-01-30T08:12:25.223Z,60
2017-01-30T08:13:35.503Z,60
2017-01-30T08:14:46.178Z,60
2017-01-30T08:15:56.852Z,60
2017-01-30T08:17:07.529Z,65
2017-01-30T08:18:18.230Z,65
2017-01-30T08:19:28.911Z,65
2017-01-30T08:20:39.597Z,65
2017-01-30T08:21:50.264Z,70
2017-01-30T08:23:00.938Z,70
2017-01-30T08:24:11.610Z,70
2017-01-30T08:25:21.883Z,70
2017-01-30T08:26:32.556Z,75
2017-01-30T08:27:43.254Z,75
2017-01-30T08:28:53.530Z,75
2017-01-30T08:30:04.209Z,80
2017-01-30T08:31:14.881Z,80
2017-01-30T08:32:25.550Z,80
2017-01-30T08:33:36.225Z,85
2017-01-30T08:34:46.903Z,85
2017-01-30T08:35:57.575Z,85
2017-01-30T08:37:07.844Z,90
2017-01-30T08:38:18.115Z,90
2017-01-30T08:39:28.782Z,90
2017-01-30T08:40:39.459Z,90
2017-01-30T08:41:50.126Z,95
2017-01-30T08:43:00.797Z,95
2017-01-30T08:44:11.468Z,95
2017-01-30T08:45:21.763Z,100
2017-01-30T08:46:32.431Z,100
2017-01-30T08:47:42.725Z,100
2017-01-30T08:48:53.399Z,100
2017-01-30T08:50:04.087Z,105
2017-01-30T08:51:14.763Z,105
2017-01-30T08:52:25.057Z,105
2017-01-30T08:53:35.731Z,105
2017-01-30T08:54:46.401Z,110
2017-01-30T08:55:57.065Z,110
2017-01-30T08:57:07.741Z,110
2017-01-30T08:58:18.408Z,110
2017-01-30T08:59:29.082Z,115
2017-01-30T09:00:39.759Z,115
2017-01-30T09:01:50.434Z,115
2017-01-30T09:03:01.103Z,120
2017-01-30T09:04:11.378Z,120
2017-01-30T09:05:22.050Z,125
2017-01-30T09:06:32.718Z,125
2017-01-30T09:07:43.388Z,130
2017-01-30T09:08:53.674Z,135
2017-01-30T09:10:04.346Z,140
2017-01-30T09:11:14.623Z,150
2017-01-30T09:12:24.896Z,150
2017-01-30T09:13:35.717Z,160
2017-01-30T09:14:46.385Z,155
2017-01-30T09:15:57.056Z,160
2017-01-30T09:17:07.740Z,160
2017-01-30T09:18:18.011Z,165
2017-01-30T09:19:28.682Z,165
2017-01-30T09:20:39.355Z,165
2017-01-30T09:21:50.023Z,170
2017-01-30T09:23:00.689Z,170
2017-01-30T09:24:11.359Z,170
2017-01-30T09:25:22.023Z,175
2017-01-30T09:26:32.694Z,175
2017-01-30T09:27:43.368Z,175
2017-01-30T09:28:54.071Z,175
2017-01-30T09:30:04.739Z,175
2017-01-30T09:31:14.646Z,180
2017-01-30T09:32:25.348Z,180
2017-01-30T09:33:36.017Z,180
2017-01-30T09:34:46.697Z,185
2017-01-30T09:35:57.369Z,180
2017-01-30T09:37:08.046Z,180
2017-01-30T09:38:17.927Z,180
2017-01-30T09:39:28.634Z,180
2017-01-30T09:40:39.319Z,170
2017-01-30T09:41:50.000Z,170
2017-01-30T09:43:00.672Z,170
2017-01-30T09:44:11.345Z,185
2017-01-30T09:45:22.051Z,185
2017-01-30T09:46:32.731Z,185
2017-01-30T09:47:43.407Z,200
2017-01-30T09:48:53.679Z,205
2017-01-30T09:50:04.352Z,205
2017-01-30T09:51:15.032Z,205
2017-01-30T09:52:25.303Z,210
2017-01-30T09:53:35.969Z,210
2017-01-30T09:54:46.645Z,205
2017-01-30T09:55:57.325Z,205
2017-01-30T09:57:07.998Z,205
2017-01-30T09:58:18.270Z,190
2017-01-30T09:59:28.943Z,180
2017-01-30T10:00:39.648Z,180
2017-01-30T10:01:50.312Z,190
2017-01-30T10:03:00.979Z,185
2017-01-30T10:04:11.656Z,190
2017-01-30T10:05:21.926Z,185
2017-01-30T10:06:32.600Z,185
2017-01-30T10:07:43.270Z,190
2017-01-30T10:08:53.956Z,195
2017-01-30T10:10:04.625Z,205
2017-01-30T10:11:15.301Z,215
2017-01-30T10:12:25.976Z,220
2017-01-30T10:13:36.298Z,230
2017-01-30T10:14:46.981Z,240
2017-01-30T10:15:56.873Z,255
2017-01-30T10:17:07.542Z,260
2017-01-30T10:18:17.824Z,265
2017-01-30T10:19:28.533Z,260
2017-01-30T10:20:39.200Z,245
2017-01-30T10:21:49.870Z,230
2017-01-30T10:23:00.553Z,225
2017-01-30T10:24:11.226Z,230
2017-01-30T10:25:21.897Z,235
2017-01-30T10:26:32.571Z,245
2017-01-30T10:27:43.244Z,265
2017-01-30T10:28:53.915Z,295
2017-01-30T10:30:04.588Z,265
2017-01-30T10:31:15.257Z,255
2017-01-30T10:32:25.931Z,270
2017-01-30T10:33:36.602Z,250
2017-01-30T10:34:46.889Z,250
2017-01-30T10:35:57.555Z,240
2017-01-30T10:37:07.831Z,245
2017-01-30T10:38:18.502Z,245
2017-01-30T10:39:29.172Z,245
2017-01-30T10:40:39.851Z,245
2017-01-30T10:41:50.524Z,245
2017-01-30T10:43:01.191Z,245
2017-01-30T10:44:11.859Z,245
2017-01-30T10:45:22.544Z,245
2017-01-30T10:46:33.222Z,250
2017-01-30T10:47:43.500Z,250
2017-01-30T10:48:54.165Z,250
2017-01-30T10:50:04.441Z,250
2017-01-30T10:51:15.117Z,250
2017-01-30T10:52:25.781Z,250
2017-01-30T10:53:36.451Z,255
2017-01-30T10:54:46.726Z,255
2017-01-30T10:55:57.393Z,290
2017-01-30T10:57:07.673Z,515
2017-01-30T10:58:17.959Z,595
2017-01-30T10:59:28.240Z,555
2017-01-30T11:00:38.915Z,500
2017-01-30T11:01:49.217Z,455
2017-01-30T11:02:59.889Z,425
2017-01-30T11:04:10.564Z,410
2017-01-30T11:05:21.235Z,400
2017-01-30T11:06:31.908Z,390
2017-01-30T11:07:42.582Z,390
2017-01-30T11:08:53.253Z,390
2017-01-30T11:10:03.924Z,390
2017-01-30T11:11:14.611Z,395
2017-01-30T11:12:25.290Z,400
2017-01-30T11:13:35.995Z,405
2017-01-30T11:14:46.669Z,400
2017-01-30T11:15:57.341Z,400
2017-01-30T11:17:08.016Z,410
2017-01-30T11:18:18.688Z,410
2017-01-30T11:19:29.363Z,415
2017-01-30T11:20:40.033Z,415
2017-01-30T11:21:50.719Z,425
2017-01-30T11:23:01.400Z,425
2017-01-30T11:24:11.708Z,430
2017-01-30T11:25:21.991Z,430
2017-01-30T11:26:32.664Z,435
2017-01-30T11:27:43.341Z,445
2017-01-30T11:28:54.019Z,445
2017-01-30T11:30:04.701Z,445
2017-01-30T11:31:14.982Z,445
2017-01-30T11:32:25.657Z,450
2017-01-30T11:33:36.334Z,445
2017-01-30T11:34:47.019Z,445
2017-01-30T11:35:57.695Z,450
2017-01-30T11:37:07.981Z,450
2017-01-30T11:38:18.665Z,455
2017-01-30T11:39:29.349Z,455
2017-01-30T11:40:39.632Z,460
2017-01-30T11:41:50.337Z,455
2017-01-30T11:43:01.012Z,460
2017-01-30T11:44:11.684Z,460
2017-01-30T11:45:21.965Z,465
2017-01-30T11:46:32.648Z,470
2017-01-30T11:47:43.327Z,470
2017-01-30T11:48:54.005Z,475
2017-01-30T11:50:04.692Z,485
2017-01-30T11:51:15.373Z,480
2017-01-30T11:52:26.056Z,485
2017-01-30T11:53:36.733Z,485
2017-01-30T11:54:47.018Z,485
2017-01-30T11:55:57.701Z,490
2017-01-30T11:57:07.192Z,490
2017-01-30T11:58:17.892Z,490
2017-01-30T11:59:28.576Z,495
2017-01-30T12:00:39.253Z,500
2017-01-30T12:01:49.537Z,495
2017-01-30T12:02:59.817Z,495
2017-01-30T12:04:09.714Z,495
2017-01-30T12:05:20.406Z,500
2017-01-30T12:06:31.096Z,500
2017-01-30T12:07:41.376Z,495
2017-01-30T12:08:52.060Z,505
2017-01-30T12:10:01.976Z,500
2017-01-30T12:11:12.662Z,500
2017-01-30T12:12:23.345Z,505
2017-01-30T12:13:34.034Z,505
2017-01-30T12:14:44.713Z,505
2017-01-30T12:15:55.349Z,505
2017-01-30T12:17:06.035Z,505
2017-01-30T12:18:16.750Z,515
2017-01-30T12:19:27.426Z,515
2017-01-30T12:20:37.706Z,510
2017-01-30T12:21:48.382Z,515
2017-01-30T12:22:59.101Z,515
2017-01-30T12:24:09.781Z,525
2017-01-30T12:25:20.463Z,520
2017-01-30T12:26:31.138Z,530
2017-01-30T12:27:41.821Z,535
2017-01-30T12:28:52.113Z,550
2017-01-30T12:30:02.796Z,570
2017-01-30T12:31:13.086Z,580
2017-01-30T12:32:23.769Z,585
2017-01-30T12:33:34.455Z,590
2017-01-30T12:34:45.144Z,595
2017-01-30T12:35:55.828Z,605
2017-01-30T12:37:06.515Z,610
2017-01-30T12:38:17.203Z,615
2017-01-30T12:39:27.885Z,605
2017-01-30T12:40:38.579Z,615
2017-01-30T12:41:48.869Z,630
2017-01-30T12:42:59.559Z,640
2017-01-30T12:44:09.846Z,650
2017-01-30T12:45:20.533Z,660
2017-01-30T12:46:31.226Z,670
2017-01-30T12:47:41.919Z,700
2017-01-30T12:48:52.603Z,725
2017-01-30T12:50:03.295Z,720
2017-01-30T12:51:13.195Z,740
2017-01-30T12:52:23.886Z,755
2017-01-30T12:53:34.584Z,780
2017-01-30T12:54:45.265Z,800
2017-01-30T12:55:55.961Z,870
2017-01-30T12:57:06.649Z,1135
2017-01-30T12:58:16.938Z,1245
2017-01-30T12:59:27.621Z,1135
2017-01-30T13:00:38.316Z,1040
2017-01-30T13:01:49.013Z,980
2017-01-30T13:02:59.298Z,945
2017-01-30T13:04:09.985Z,940
2017-01-30T13:05:20.678Z,930
2017-01-30T13:06:31.005Z,890
2017-01-30T13:07:41.694Z,855
2017-01-30T13:08:51.993Z,855
2017-01-30T13:10:02.286Z,860
2017-01-30T13:11:12.579Z,870
2017-01-30T13:12:23.269Z,860
2017-01-30T13:13:33.960Z,845
2017-01-30T13:14:44.645Z,850
2017-01-30T13:15:55.333Z,840
2017-01-30T13:17:05.623Z,825
2017-01-30T13:18:16.318Z,820
2017-01-30T13:19:27.008Z,810
2017-01-30T13:20:37.695Z,795
2017-01-30T13:21:48.380Z,785
2017-01-30T13:22:59.088Z,770
2017-01-30T13:24:09.399Z,775
2017-01-30T13:25:20.090Z,780
2017-01-30T13:26:30.778Z,775
2017-01-30T13:27:41.469Z,765
2017-01-30T13:28:52.168Z,770
2017-01-30T13:30:02.056Z,765
2017-01-30T13:31:12.346Z,720
2017-01-30T13:32:22.655Z,695
2017-01-30T13:33:33.344Z,645
2017-01-30T13:34:44.030Z,515
2017-01-30T13:35:54.337Z,365
2017-01-30T13:37:05.026Z,305
2017-01-30T13:38:15.318Z,295
2017-01-30T13:39:26.008Z,275
2017-01-30T13:40:36.694Z,200
2017-01-30T13:41:46.982Z,205
2017-01-30T13:42:57.272Z,190
2017-01-30T13:44:07.563Z,175
2017-01-30T13:45:18.248Z,225
2017-01-30T13:46:28.944Z,350
2017-01-30T13:47:39.626Z,340
2017-01-30T13:48:50.309Z,215
2017-01-30T13:50:00.297Z,175
2017-01-30T13:51:10.984Z,175
2017-01-30T13:52:21.668Z,175
2017-01-30T13:53:32.365Z,195
2017-01-30T13:54:43.058Z,215
2017-01-30T13:55:53.741Z,225
2017-01-30T13:57:04.424Z,200
2017-01-30T13:58:15.116Z,165
2017-01-30T13:59:25.799Z,165
2017-01-30T14:00:36.487Z,205
2017-01-30T14:01:47.169Z,290
2017-01-30T14:02:57.857Z,225
2017-01-30T14:04:08.142Z,260
2017-01-30T14:05:18.028Z,305
2017-01-30T14:06:28.700Z,220
2017-01-30T14:07:39.384Z,170
2017-01-30T14:08:50.064Z,160
2017-01-30T14:10:00.743Z,220
2017-01-30T14:11:11.029Z,260
2017-01-30T14:12:21.704Z,190
2017-01-30T14:13:32.381Z,170
2017-01-30T14:14:42.663Z,165
2017-01-30T14:15:53.360Z,145
2017-01-30T14:17:03.646Z,125
2017-01-30T14:18:13.928Z,120
2017-01-30T14:19:24.606Z,120
2017-01-30T14:20:35.285Z,115
2017-01-30T14:21:45.971Z,115
2017-01-30T14:22:56.650Z,110
2017-01-30T14:24:07.329Z,110
2017-01-30T14:25:17.608Z,105
2017-01-30T14:26:28.290Z,105
2017-01-30T14:27:38.964Z,100
2017-01-30T14:28:48.845Z,100
2017-01-30T14:29:59.514Z,95
2017-01-30T14:31:09.820Z,95
2017-01-30T14:32:19.706Z,95
2017-01-30T14:33:30.382Z,90
2017-01-30T14:34:41.059Z,90
2017-01-30T14:35:51.737Z,85
2017-01-30T14:37:01.617Z,85
2017-01-30T14:38:11.500Z,85
2017-01-30T14:39:22.178Z,80
2017-01-30T14:40:32.848Z,80
2017-01-30T14:41:43.518Z,80
2017-01-30T14:42:54.190Z,75
2017-01-30T14:44:04.471Z,75
2017-01-30T14:45:14.352Z,75
2017-01-30T14:46:25.033Z,70
2017-01-30T14:47:35.709Z,70
2017-01-30T14:48:46.380Z,70
2017-01-30T14:49:57.055Z,65
2017-01-30T14:51:07.736Z,65
2017-01-30T14:52:17.618Z,60
2017-01-30T14:53:28.294Z,60
2017-01-30T14:54:38.971Z,60
2017-01-30T14:55:49.250Z,55
2017-01-30T14:56:59.925Z,55
2017-01-30T14:58:10.229Z,55
2017-01-30T14:59:20.905Z,50
2017-01-30T15:00:31.579Z,50
2017-01-30T15:01:41.858Z,50
2017-01-30T15:02:51.735Z,45
2017-01-30T15:04:02.404Z,45
2017-01-30T15:05:12.677Z,40
2017-01-30T15:06:23.345Z,40
2017-01-30T15:07:34.022Z,40
2017-01-30T15:08:44.700Z,35
2017-01-30T15:09:55.371Z,35
2017-01-30T15:11:06.042Z,35
2017-01-30T15:12:16.712Z,30
2017-01-30T15:13:27.412Z,30
2017-01-30T15:14:38.093Z,30
2017-01-30T15:15:48.765Z,25
2017-01-30T15:16:59.437Z,25
2017-01-30T15:18:09.714Z,25
2017-01-30T15:19:20.013Z,20
2017-01-30T15:20:29.895Z,20
2017-01-30T15:21:40.567Z,20
2017-01-30T15:22:51.237Z,20
2017-01-30T15:24:01.915Z,15
2017-01-30T15:25:12.586Z,15
2017-01-30T15:26:22.862Z,15
2017-01-30T15:27:33.540Z,15
2017-01-30T15:28:43.815Z,15
2017-01-30T15:29:54.479Z,10
2017-01-30T15:31:05.153Z,10
2017-01-30T15:32:15.828Z,10
2017-01-30T15:33:26.498Z,10
2017-01-30T15:34:37.169Z,10
2017-01-30T15:35:47.839Z,5
2017-01-30T15:36:58.551Z,5
2017-01-30T15:38:09.228Z,5
2017-01-30T15:39:19.899Z,5
2017-01-30T15:40:30.573Z,5
2017-01-30T15:41:41.247Z,5
2017-01-30T15:42:51.521Z,5
2017-01-30T15:44:02.187Z,5
2017-01-30T15:45:50.903Z,0
2017-01-30T15:47:01.573Z,0
2017-01-30T15:48:12.242Z,0
2017-01-30T15:49:22.513Z,0
2017-01-30T15:50:33.181Z,0
2017-01-30T15:51:43.873Z,0
2017-01-30T15:52:54.174Z,0
2017-01-30T15:54:04.848Z,0
2017-01-30T15:55:15.116Z,0
2017-01-30T15:56:25.793Z,0
2017-01-30T15:57:36.461Z,0
2017-01-30T15:58:47.126Z,0
2017-01-30T15:59:57.801Z,0
2017-01-30T16:01:08.473Z,0
2017-01-30T16:02:19.138Z,0
2017-01-30T16:03:29.819Z,0
2017-01-30T16:04:40.490Z,0
2017-01-30T16:05:51.160Z,0
2017-01-30T16:07:01.831Z,0
2017-01-30T16:08:12.502Z,0
2017-01-30T16:09:23.176Z,0
2017-01-30T16:10:33.844Z,0
2017-01-30T16:11:43.728Z,0
2017-01-30T16:12:54.404Z,0
2017-01-30T16:14:04.280Z,0
2017-01-30T16:15:14.555Z,0
2017-01-30T16:16:24.831Z,0
2017-01-30T16:17:35.502Z,0
2017-01-30T16:18:45.772Z,0
2017-01-30T16:19:56.448Z,0
2017-01-30T16:21:07.114Z,0
2017-01-30T16:22:17.787Z,0
2017-01-30T16:23:28.081Z,0
2017-01-30T16:24:38.753Z,0
2017-01-30T16:25:49.428Z,0
2017-01-30T16:26:59.736Z,0
2017-01-30T16:28:09.624Z,0
2017-01-30T16:29:20.291Z,0
2017-01-30T16:30:30.958Z,0
2017-01-30T16:31:41.630Z,0
2017-01-30T16:32:52.302Z,0
2017-01-30T16:34:03.000Z,0
2017-01-30T16:35:13.675Z,0
2017-01-30T16:36:24.345Z,0
2017-01-30T16:37:34.625Z,0
2017-01-30T16:38:44.901Z,0
2017-01-30T16:39:55.597Z,0
2017-01-30T16:41:06.304Z,0
2017-01-30T16:42:16.577Z,0
2017-01-30T16:43:27.271Z,0
2017-01-30T16:44:37.941Z,0
2017-01-30T16:45:48.603Z,0
2017-01-30T16:46:59.277Z,0
2017-01-30T16:48:09.955Z,0
2017-01-30T16:49:20.624Z,0
2017-01-30T16:50:31.288Z,0
2017-01-30T16:51:41.953Z,0
2017-01-30T16:52:51.832Z,0
2017-01-30T16:54:02.104Z,0